Time;durP1;ratioP1;P1;durP2;ratioP2;P2;SDS_P1;SDS_P2;PMS_P1;PMS_P2;Temp;Humidity;BMP_temperature;BMP_pressure;BME280_temperature;BME280_humidity;BME280_pressure;Samples;Min_cycle;Max_cycle;Signal;HPM_P1;HPM_P2
2023/01/02 00:01:21;;;;;;;10.27;5.47;;;15.80;93.40;;;;;;5039785;27;20513;-62
2023/01/02 00:03:48;;;;;;;17.87;6.10;;;15.70;93.20;;;;;;5071857;27;20640;-62
2023/01/02 00:06:16;;;;;;;9.70;5.63;;;15.70;93.10;;;;;;5069003;27;20501;-62
2023/01/02 00:08:44;;;;;;;13.23;5.50;;;15.20;93.00;;;;;;5050479;27;21083;-62
2023/01/02 00:11:11;;;;;;;19.00;6.30;;;15.60;93.10;;;;;;5070989;27;21031;-62
2023/01/02 00:13:38;;;;;;;10.70;6.90;;;15.60;93.50;;;;;;5051573;27;20482;-62
2023/01/02 00:16:05;;;;;;;18.00;9.83;;;15.60;93.10;;;;;;5051084;27;20770;-62
2023/01/02 00:18:32;;;;;;;18.30;5.57;;;15.60;93.10;;;;;;5067335;27;20452;-62
2023/01/02 00:21:02;;;;;;;20.67;9.60;;;15.60;93.20;;;;;;5035159;27;21140;-62
2023/01/02 00:23:31;;;;;;;8.87;4.90;;;15.60;92.90;;;;;;5076687;27;20475;-63
2023/01/02 00:25:59;;;;;;;11.13;6.57;;;15.60;93.10;;;;;;5058172;27;20875;-62
2023/01/02 00:28:25;;;;;;;11.37;6.23;;;15.50;92.90;;;;;;5052278;27;20483;-62
2023/01/02 00:30:52;;;;;;;13.60;4.80;;;15.50;93.10;;;;;;5054496;27;20843;-62
2023/01/02 00:33:19;;;;;;;6.73;4.70;;;15.50;92.90;;;;;;5043853;27;20484;-61
2023/01/02 00:35:45;;;;;;;16.40;5.60;;;15.50;93.10;;;;;;5070780;27;20530;-61
2023/01/02 00:38:12;;;;;;;14.27;5.73;;;15.50;93.20;;;;;;5036988;27;20483;-61
2023/01/02 00:40:39;;;;;;;11.03;7.53;;;15.40;92.70;;;;;;5072669;27;20451;-61
2023/01/02 00:43:07;;;;;;;13.83;8.10;;;15.40;92.90;;;;;;5055779;27;20473;-61
2023/01/02 00:45:33;;;;;;;11.03;5.00;;;15.50;93.40;;;;;;5066878;27;20484;-61
2023/01/02 00:48:00;;;;;;;14.63;8.60;;;15.50;93.10;;;;;;5063816;27;21021;-61
2023/01/02 00:50:27;;;;;;;11.37;6.30;;;15.50;93.00;;;;;;5057577;27;20442;-61
2023/01/02 00:52:54;;;;;;;11.30;5.67;;;15.50;93.00;;;;;;5056563;27;20490;-62
2023/01/02 00:55:21;;;;;;;9.10;5.20;;;15.40;92.80;;;;;;5058873;27;20509;-61
2023/01/02 00:57:47;;;;;;;15.23;7.60;;;15.50;92.80;;;;;;5061655;27;20490;-61
2023/01/02 01:00:16;;;;;;;16.03;8.47;;;15.50;93.30;;;;;;5050177;27;20483;-61
2023/01/02 01:02:43;;;;;;;10.07;6.47;;;15.40;93.10;;;;;;5051173;27;20481;-61
2023/01/02 01:05:10;;;;;;;13.07;7.57;;;15.40;92.80;;;;;;5060678;27;20992;-61
2023/01/02 01:07:36;;;;;;;13.87;6.30;;;15.40;93.40;;;;;;5068231;27;20530;-62
2023/01/02 01:10:03;;;;;;;14.93;7.57;;;15.40;92.80;;;;;;5069218;27;20482;-61
2023/01/02 01:12:31;;;;;;;20.37;6.93;;;15.50;93.10;;;;;;5072747;27;20462;-62
2023/01/02 01:14:58;;;;;;;14.37;8.70;;;15.50;93.00;;;;;;5052953;28;20491;-62
2023/01/02 01:17:26;;;;;;;10.13;5.90;;;15.50;93.00;;;;;;5072421;28;20540;-61
2023/01/02 01:19:52;;;;;;;13.83;7.03;;;15.40;92.70;;;;;;5066013;27;20493;-62
2023/01/02 01:22:19;;;;;;;10.03;5.27;;;15.50;92.70;;;;;;5077965;27;20509;-62
2023/01/02 01:24:46;;;;;;;6.20;4.47;;;15.50;92.50;;;;;;5073200;27;20637;-61
2023/01/02 01:27:12;;;;;;;14.97;6.03;;;15.50;92.10;;;;;;5094393;27;20849;-61
2023/01/02 01:29:39;;;;;;;14.53;5.70;;;15.60;92.70;;;;;;5066839;27;20478;-61
2023/01/02 01:32:06;;;;;;;11.87;7.03;;;15.60;92.60;;;;;;5090370;27;20515;-61
2023/01/02 01:34:34;;;;;;;8.47;5.40;;;15.50;92.30;;;;;;5076939;27;20642;-62
2023/01/02 01:37:01;;;;;;;18.13;9.83;;;15.60;92.30;;;;;;5065062;27;20520;-61
2023/01/02 01:39:27;;;;;;;9.67;4.90;;;15.60;92.60;;;;;;5103663;27;20487;-61
2023/01/02 01:41:54;;;;;;;14.80;5.60;;;15.60;92.40;;;;;;5090322;27;20481;-61
2023/01/02 01:44:44;;;;;;;38.53;5.27;;;15.50;92.50;;;;;;5079781;27;20481;-62
2023/01/02 01:47:36;;;;;;;15.00;6.07;;;15.50;92.80;;;;;;5057756;28;20491;-62
2023/01/02 01:50:08;;;;;;;15.97;8.30;;;15.50;92.70;;;;;;5050414;28;21192;-62
2023/01/02 01:52:39;;;;;;;11.40;5.17;;;15.40;92.70;;;;;;5034897;28;20490;-62
2023/01/02 01:55:11;;;;;;;16.83;5.50;;;15.30;92.40;;;;;;5057664;28;20496;-62
2023/01/02 01:57:43;;;;;;;12.70;6.03;;;15.30;92.20;;;;;;5026895;28;20491;-62
2023/01/02 02:00:11;;;;;;;13.13;6.40;;;15.20;92.30;;;;;;5046944;28;20487;-62
2023/01/02 02:02:41;;;;;;;11.67;6.30;;;15.30;92.20;;;;;;5056841;28;20480;-62
2023/01/02 02:05:11;;;;;;;14.27;7.07;;;15.30;92.20;;;;;;5051954;28;20478;-61
2023/01/02 02:07:41;;;;;;;19.90;6.10;;;15.30;92.20;;;;;;5060749;28;20891;-61
2023/01/02 02:10:12;;;;;;;24.93;6.97;;;15.30;92.20;;;;;;5052906;28;20868;-62
2023/01/02 02:12:39;;;;;;;15.30;5.77;;;15.30;92.60;;;;;;5038174;28;20474;-62
2023/01/02 02:15:09;;;;;;;18.33;6.93;;;15.30;92.50;;;;;;5050519;28;20492;-62
2023/01/02 02:17:43;;;;;;;14.73;6.07;;;15.40;92.90;;;;;;5046849;28;21041;-62
2023/01/02 02:20:26;;;;;;;27.13;7.10;;;15.40;92.30;;;;;;5054857;28;20517;-62
2023/01/02 02:23:26;;;;;;;10.13;5.10;;;15.30;92.10;;;;;;5049331;28;20506;-62
2023/01/02 02:26:26;;;;;;;14.40;5.47;;;15.40;92.10;;;;;;5039730;28;20904;-62
2023/01/02 02:29:21;;;;;;;10.93;5.30;;;15.40;92.60;;;;;;5049974;28;20478;-62
2023/01/02 02:31:53;;;;;;;16.23;5.80;;;15.40;92.60;;;;;;5070580;27;20477;-62
2023/01/02 02:34:23;;;;;;;5.70;4.40;;;15.40;92.50;;;;;;5069664;27;20488;-62
2023/01/02 02:36:57;;;;;;;7.57;4.63;;;15.20;92.10;;;;;;5074203;27;20837;-61
2023/01/02 02:39:35;;;;;;;9.53;3.90;;;15.30;92.50;;;;;;5073966;27;20600;-61
2023/01/02 02:42:11;;;;;;;22.23;9.60;;;15.20;92.10;;;;;;5050812;27;20488;-62
2023/01/02 02:44:48;;;;;;;6.20;4.37;;;15.10;92.10;;;;;;5081727;27;20498;-62
2023/01/02 02:47:26;;;;;;;11.83;6.33;;;15.10;91.80;;;;;;5039211;27;20481;-62
2023/01/02 02:49:59;;;;;;;15.50;5.83;;;15.10;91.40;;;;;;5079179;27;21160;-62
2023/01/02 02:52:29;;;;;;;12.37;5.50;;;15.10;91.40;;;;;;5051518;28;20858;-62
2023/01/02 02:55:00;;;;;;;20.17;6.67;;;15.20;91.20;;;;;;5058197;27;20873;-62
2023/01/02 02:57:27;;;;;;;12.37;4.80;;;15.20;91.00;;;;;;5075840;28;20729;-62
2023/01/02 02:59:54;;;;;;;16.93;7.57;;;15.20;91.30;;;;;;5070611;28;20490;-61
2023/01/02 03:02:22;;;;;;;9.20;4.17;;;15.30;91.20;;;;;;5052128;28;20536;-62
2023/01/02 03:04:52;;;;;;;24.93;6.30;;;15.30;91.10;;;;;;5059011;27;20474;-62
2023/01/02 03:07:26;;;;;;;12.93;5.43;;;15.30;90.90;;;;;;5050256;28;20471;-62
2023/01/02 03:10:03;;;;;;;16.87;5.67;;;15.30;91.00;;;;;;5050039;28;20895;-62
2023/01/02 03:12:39;;;;;;;13.93;6.10;;;15.30;90.70;;;;;;5049365;28;21117;-62
2023/01/02 03:15:14;;;;;;;10.93;6.30;;;15.30;90.80;;;;;;5050700;28;20806;-62
2023/01/02 03:17:54;;;;;;;7.77;5.03;;;15.40;90.40;;;;;;5065265;27;20940;-62
2023/01/02 03:20:24;;;;;;;14.33;5.27;;;15.40;90.30;;;;;;5057459;27;20489;-62
2023/01/02 03:22:59;;;;;;;9.07;4.73;;;15.40;91.00;;;;;;5068088;27;20482;-62
2023/01/02 03:25:26;;;;;;;18.53;6.33;;;15.40;90.40;;;;;;5070237;27;20481;-62
2023/01/02 03:27:57;;;;;;;15.00;6.30;;;15.40;90.60;;;;;;5094196;27;20822;-62
2023/01/02 03:30:24;;;;;;;11.80;6.10;;;15.20;90.10;;;;;;5040137;27;20525;-62
2023/01/02 03:32:56;;;;;;;7.00;4.30;;;15.30;90.00;;;;;;5087305;27;20471;-62
2023/01/02 03:35:28;;;;;;;17.03;5.37;;;15.30;90.00;;;;;;5051149;28;20475;-61
2023/01/02 03:37:58;;;;;;;22.03;7.87;;;15.40;90.00;;;;;;5098608;27;20494;-62
2023/01/02 03:40:28;;;;;;;17.90;6.90;;;15.40;90.00;;;;;;5064684;27;20508;-62
2023/01/02 03:42:59;;;;;;;16.73;6.87;;;15.40;88.80;;;;;;5097797;27;20503;-62
2023/01/02 03:45:30;;;;;;;18.03;5.30;;;15.40;89.50;;;;;;5085705;27;20482;-62
2023/01/02 03:48:07;;;;;;;9.33;6.37;;;15.40;89.00;;;;;;5060932;28;20482;-62
2023/01/02 03:50:40;;;;;;;31.57;9.07;;;15.40;89.20;;;;;;5035294;28;20471;-62
2023/01/02 03:53:07;;;;;;;17.47;7.03;;;15.50;89.20;;;;;;5055019;28;20475;-62
2023/01/02 03:55:38;;;;;;;13.27;5.30;;;15.50;88.60;;;;;;5055844;28;20494;-62
2023/01/02 03:58:14;;;;;;;14.77;8.63;;;15.50;88.50;;;;;;5053209;28;20475;-62
2023/01/02 04:00:44;;;;;;;18.80;7.63;;;15.50;87.80;;;;;;5054216;28;20490;-62
2023/01/02 04:03:16;;;;;;;13.13;5.00;;;15.60;89.10;;;;;;5036192;28;20471;-62
2023/01/02 04:05:48;;;;;;;18.77;6.00;;;15.60;87.90;;;;;;5034100;28;20882;-61
2023/01/02 04:08:21;;;;;;;17.53;6.50;;;15.60;88.30;;;;;;5032655;28;20487;-62
2023/01/02 04:10:51;;;;;;;12.40;4.93;;;15.60;88.10;;;;;;5017946;28;20566;-61
2023/01/02 04:13:21;;;;;;;9.10;3.80;;;15.70;88.50;;;;;;5050054;28;20985;-62
2023/01/02 04:15:50;;;;;;;21.60;6.73;;;15.60;88.40;;;;;;5066343;28;21001;-62
2023/01/02 04:18:23;;;;;;;14.70;5.20;;;15.50;88.30;;;;;;5061768;28;20840;-62
2023/01/02 04:20:53;;;;;;;12.03;4.50;;;15.50;88.40;;;;;;5071246;27;20918;-62
2023/01/02 04:23:23;;;;;;;16.23;4.40;;;15.50;89.40;;;;;;5094906;27;20456;-62
2023/01/02 04:26:05;;;;;;;19.43;4.93;;;15.50;88.10;;;;;;5087481;27;20508;-62
2023/01/02 04:28:34;;;;;;;16.87;5.83;;;15.50;88.10;;;;;;5055274;27;20464;-62
2023/01/02 04:31:07;;;;;;;16.47;7.37;;;15.50;88.40;;;;;;5076203;27;20497;-62
2023/01/02 04:33:39;;;;;;;19.23;5.07;;;15.50;87.60;;;;;;5062303;28;20490;-62
2023/01/02 04:36:10;;;;;;;13.90;8.07;;;15.40;89.00;;;;;;5056367;28;21012;-62
2023/01/02 04:38:37;;;;;;;9.83;4.87;;;15.40;88.70;;;;;;5067457;28;20509;-62
2023/01/02 04:41:04;;;;;;;16.03;8.10;;;15.40;89.50;;;;;;5055318;28;21007;-62
2023/01/02 04:43:31;;;;;;;15.20;4.30;;;15.40;88.40;;;;;;5071355;28;20533;-62
2023/01/02 04:45:59;;;;;;;22.00;7.63;;;15.50;88.20;;;;;;5075358;27;20518;-62
2023/01/02 04:48:25;;;;;;;16.77;6.13;;;15.40;88.60;;;;;;5068792;27;20481;-62
2023/01/02 04:50:55;;;;;;;13.33;7.80;;;15.30;88.20;;;;;;5060641;27;20497;-62
2023/01/02 04:53:22;;;;;;;24.40;6.00;;;15.40;88.20;;;;;;5065535;27;20876;-62
2023/01/02 04:55:48;;;;;;;8.43;5.27;;;15.30;88.70;;;;;;5063459;28;21014;-62
2023/01/02 04:58:15;;;;;;;13.53;5.20;;;15.40;87.80;;;;;;5073119;27;20492;-62
2023/01/02 05:00:42;;;;;;;16.27;7.80;;;15.40;88.30;;;;;;5063780;27;20501;-62
2023/01/02 05:03:08;;;;;;;14.60;7.53;;;15.50;87.20;;;;;;5086296;28;20956;-62
2023/01/02 05:05:35;;;;;;;11.70;4.70;;;15.40;88.10;;;;;;5055970;28;20760;-62
2023/01/02 05:08:03;;;;;;;15.40;7.53;;;15.40;88.10;;;;;;5074594;28;20494;-62
2023/01/02 05:10:30;;;;;;;14.60;7.13;;;15.40;87.40;;;;;;5053540;28;20534;-62
2023/01/02 05:12:58;;;;;;;19.20;8.17;;;15.50;87.70;;;;;;5072208;28;20489;-62
2023/01/02 05:15:26;;;;;;;13.60;4.20;;;15.50;88.60;;;;;;5067931;27;20575;-61
2023/01/02 05:17:52;;;;;;;10.10;4.60;;;15.50;88.10;;;;;;5085137;27;20511;-61
2023/01/02 05:20:19;;;;;;;31.23;10.70;;;15.50;87.30;;;;;;5089082;27;20887;-61
2023/01/02 05:25:33;;;;;;;9.77;3.87;;;15.50;88.20;;;;;;5084526;27;20555;-62
2023/01/02 05:28:01;;;;;;;11.00;7.07;;;15.50;89.20;;;;;;5069303;28;20856;-61
2023/01/02 05:30:28;;;;;;;13.40;5.63;;;15.50;89.00;;;;;;5073777;27;20479;-61
2023/01/02 05:32:54;;;;;;;24.20;8.07;;;15.40;89.10;;;;;;5068208;28;20474;-62
2023/01/02 05:35:21;;;;;;;8.50;4.90;;;15.40;89.10;;;;;;5060714;28;20485;-62
2023/01/02 05:37:48;;;;;;;11.80;6.13;;;15.40;88.90;;;;;;5059287;28;21018;-62
2023/01/02 05:40:14;;;;;;;16.37;7.07;;;15.40;89.10;;;;;;5059797;28;20478;-62
2023/01/02 05:42:42;;;;;;;13.33;5.60;;;15.30;87.80;;;;;;5066496;28;20485;-61
2023/01/02 05:45:10;;;;;;;14.40;7.03;;;15.40;87.50;;;;;;5059551;28;20490;-61
2023/01/02 05:47:36;;;;;;;10.47;5.67;;;15.40;88.20;;;;;;5058445;28;20506;-62
2023/01/02 05:50:03;;;;;;;14.30;6.97;;;15.50;88.40;;;;;;5054511;28;20475;-61
2023/01/02 05:52:30;;;;;;;8.90;5.40;;;15.50;88.40;;;;;;5056269;28;20868;-62
2023/01/02 05:54:56;;;;;;;17.90;6.87;;;15.50;88.40;;;;;;5055873;28;20479;-61
2023/01/02 05:57:23;;;;;;;22.90;5.63;;;15.60;87.70;;;;;;5058902;28;20491;-62
2023/01/02 05:59:51;;;;;;;23.77;6.77;;;15.60;89.20;;;;;;5048606;28;20483;-62
2023/01/02 06:02:18;;;;;;;16.77;5.37;;;15.50;88.90;;;;;;5069214;28;20486;-61
2023/01/02 06:04:46;;;;;;;22.20;6.33;;;15.50;87.90;;;;;;5067824;27;21862;-62
2023/01/02 06:07:12;;;;;;;8.93;5.20;;;15.50;88.50;;;;;;5094436;27;20975;-62
2023/01/02 06:09:39;;;;;;;13.10;6.07;;;15.40;89.10;;;;;;5069802;27;20493;-62
2023/01/02 06:12:06;;;;;;;16.13;7.60;;;15.40;88.60;;;;;;5069622;27;20482;-62
2023/01/02 06:14:32;;;;;;;14.07;4.83;;;15.50;89.40;;;;;;5075613;28;20569;-61
2023/01/02 06:17:00;;;;;;;14.47;7.20;;;15.40;89.20;;;;;;5062831;28;20502;-62
2023/01/02 06:19:27;;;;;;;6.77;3.67;;;15.40;88.60;;;;;;5068465;28;20474;-62
2023/01/02 06:21:54;;;;;;;23.03;7.40;;;15.30;89.20;;;;;;5069157;28;20612;-62
2023/01/02 06:24:20;;;;;;;19.40;5.60;;;15.30;89.60;;;;;;5060879;28;20491;-61
2023/01/02 06:26:47;;;;;;;13.53;5.37;;;15.30;90.00;;;;;;5060860;27;20487;-61
2023/01/02 06:29:14;;;;;;;8.37;4.63;;;15.30;89.80;;;;;;5089396;27;20488;-61
2023/01/02 06:31:40;;;;;;;15.27;5.57;;;15.30;89.70;;;;;;5079865;27;20473;-62
2023/01/02 06:34:10;;;;;;;12.93;6.17;;;15.30;89.50;;;;;;5074509;27;20541;-61
2023/01/02 06:36:36;;;;;;;13.60;4.00;;;15.40;90.00;;;;;;5075222;27;20486;-61
2023/01/02 06:39:03;;;;;;;30.77;8.83;;;15.40;89.90;;;;;;5081649;28;20544;-61
2023/01/02 06:41:30;;;;;;;16.37;5.43;;;15.30;90.00;;;;;;5056140;28;20478;-61
2023/01/02 06:43:57;;;;;;;21.43;4.80;;;15.20;90.00;;;;;;5064733;27;20485;-61
2023/01/02 06:46:24;;;;;;;13.30;4.30;;;15.20;90.40;;;;;;5066437;27;20486;-62
2023/01/02 06:48:51;;;;;;;13.27;4.83;;;15.10;90.30;;;;;;5088847;27;20905;-61
2023/01/02 06:51:21;;;;;;;10.70;5.00;;;15.10;90.50;;;;;;5067128;27;20491;-61
2023/01/02 06:53:48;;;;;;;12.30;5.70;;;15.10;90.40;;;;;;5056118;27;20489;-62
2023/01/02 06:56:17;;;;;;;9.63;3.60;;;15.10;90.30;;;;;;5065774;27;20483;-62
2023/01/02 06:58:44;;;;;;;12.67;5.80;;;15.20;90.30;;;;;;5050126;27;20478;-63
2023/01/02 07:01:12;;;;;;;10.50;5.90;;;15.10;90.50;;;;;;5054113;28;20483;-63
2023/01/02 07:03:39;;;;;;;13.93;4.77;;;15.10;90.70;;;;;;5055921;28;20483;-62
2023/01/02 07:06:08;;;;;;;15.03;7.43;;;15.20;90.80;;;;;;5053935;27;20540;-62
2023/01/02 07:08:36;;;;;;;10.93;5.07;;;15.10;90.50;;;;;;5064355;28;20543;-63
2023/01/02 07:11:08;;;;;;;24.03;6.63;;;15.10;91.00;;;;;;5070850;27;20493;-62
2023/01/02 07:13:35;;;;;;;12.67;4.60;;;15.00;90.90;;;;;;5078717;27;20512;-62
2023/01/02 07:16:03;;;;;;;25.43;10.57;;;15.00;90.80;;;;;;5066936;27;21033;-63
2023/01/02 07:18:30;;;;;;;13.77;4.30;;;15.00;91.60;;;;;;5078684;27;20487;-62
2023/01/02 07:20:57;;;;;;;9.90;4.70;;;14.90;92.00;;;;;;5056412;28;21197;-63
2023/01/02 07:23:23;;;;;;;29.70;6.00;;;14.90;92.70;;;;;;5062670;27;20543;-62
2023/01/02 07:25:53;;;;;;;20.33;4.87;;;14.90;93.00;;;;;;5079318;28;20493;-63
2023/01/02 07:28:20;;;;;;;15.27;4.60;;;14.80;93.40;;;;;;5053892;27;21042;-62
2023/01/02 07:30:47;;;;;;;25.47;6.63;;;14.70;93.20;;;;;;5083961;27;21030;-62
2023/01/02 07:33:14;;;;;;;20.90;4.47;;;;;;;;;;5057548;27;20829;-62
2023/01/02 07:35:41;;;;;;;26.80;6.50;;;;;;;;;;5080881;27;20505;-62
2023/01/02 07:38:07;;;;;;;43.53;10.17;;;14.30;94.90;;;;;;5069228;27;20477;-62
2023/01/02 07:40:34;;;;;;;29.90;5.20;;;14.20;95.20;;;;;;5086087;27;20478;-63
2023/01/02 07:43:02;;;;;;;24.63;8.93;;;14.10;94.70;;;;;;5077365;27;20507;-62
2023/01/02 07:45:29;;;;;;;14.37;4.37;;;;;;;;;;5062093;27;20481;-62
2023/01/02 07:47:56;;;;;;;38.23;9.30;;;13.90;95.30;;;;;;5078782;27;20888;-62
2023/01/02 07:50:22;;;;;;;23.60;8.97;;;14.00;95.10;;;;;;5047619;28;20483;-62
2023/01/02 07:52:49;;;;;;;27.77;8.03;;;13.90;95.60;;;;;;5051131;27;20485;-61
2023/01/02 07:55:16;;;;;;;30.77;6.07;;;13.90;95.50;;;;;;5068281;27;21072;-62
2023/01/02 07:57:43;;;;;;;20.07;5.67;;;;;;;;;;5060992;28;20834;-63
2023/01/02 08:00:12;;;;;;;30.83;9.27;;;14.00;95.20;;;;;;5065894;28;20509;-61
2023/01/02 08:02:39;;;;;;;31.20;8.10;;;14.00;94.80;;;;;;5070562;27;20481;-62
2023/01/02 08:05:06;;;;;;;18.23;7.87;;;14.10;95.20;;;;;;5076379;27;20482;-62
2023/01/02 08:07:33;;;;;;;16.87;5.17;;;;;;;;;;5061380;27;20860;-62
2023/01/02 08:10:00;;;;;;;23.70;7.00;;;11.40;93.80;;;;;;5061042;27;20493;-62
2023/01/02 08:12:27;;;;;;;27.47;8.30;;;14.10;94.80;;;;;;5099643;27;20481;-62
2023/01/02 08:14:54;;;;;;;19.30;6.00;;;;;;;;;;5066885;27;20496;-62
2023/01/02 08:17:22;;;;;;;28.93;9.30;;;14.10;95.10;;;;;;5099154;27;21029;-62
2023/01/02 08:19:49;;;;;;;23.03;6.47;;;;;;;;;;5067034;28;20880;-62
2023/01/02 08:22:16;;;;;;;31.53;7.60;;;;;;;;;;5072143;28;20989;-62
2023/01/02 08:24:43;;;;;;;27.53;7.03;;;14.20;94.70;;;;;;5074019;28;20468;-62
2023/01/02 08:27:09;;;;;;;40.70;8.17;;;14.20;94.50;;;;;;5065329;28;20920;-61
2023/01/02 08:29:36;;;;;;;27.33;7.77;;;;;;;;;;5072483;28;20474;-62
2023/01/02 08:32:03;;;;;;;32.10;10.53;;;18.10;95.90;;;;;;5048852;28;20470;-62
2023/01/02 08:34:33;;;;;;;29.93;7.27;;;14.30;94.50;;;;;;5070089;27;20483;-62
2023/01/02 08:37:00;;;;;;;32.40;9.53;;;;;;;;;;5057212;27;20495;-62
2023/01/02 08:39:28;;;;;;;30.23;7.37;;;14.40;94.20;;;;;;5079659;27;20475;-61
2023/01/02 08:41:56;;;;;;;33.57;9.40;;;;;;;;;;5086351;27;21351;-62
2023/01/02 08:44:23;;;;;;;20.17;6.23;;;14.40;93.80;;;;;;5075079;27;20490;-62
2023/01/02 08:46:50;;;;;;;36.07;7.70;;;14.40;94.20;;;;;;5061554;27;20572;-62
2023/01/02 08:49:17;;;;;;;31.20;7.07;;;;;;;;;;5074018;27;20501;-62
2023/01/02 08:51:45;;;;;;;35.27;7.00;;;14.40;94.10;;;;;;5070377;27;20495;-62
2023/01/02 08:54:12;;;;;;;21.20;7.77;;;14.40;94.00;;;;;;5084057;27;20483;-62
2023/01/02 08:56:40;;;;;;;29.33;7.03;;;14.50;94.00;;;;;;5052353;27;20490;-61
2023/01/02 08:59:08;;;;;;;29.03;9.13;;;14.50;94.20;;;;;;5085814;27;20497;-62
2023/01/02 09:01:35;;;;;;;21.87;5.77;;;14.60;94.20;;;;;;5085764;27;20465;-61
2023/01/02 09:04:03;;;;;;;25.23;10.17;;;14.50;94.30;;;;;;5061559;27;20862;-62
2023/01/02 09:06:31;;;;;;;29.87;6.17;;;14.60;94.00;;;;;;5086697;27;20485;-62
2023/01/02 09:09:00;;;;;;;24.97;8.43;;;12.70;93.00;;;;;;5088924;27;20723;-62
2023/01/02 09:11:29;;;;;;;14.10;4.97;;;14.70;94.30;;;;;;5052828;28;20498;-62
2023/01/02 09:13:57;;;;;;;34.47;8.70;;;14.60;94.50;;;;;;5079920;27;20612;-62
2023/01/02 09:16:24;;;;;;;27.90;10.67;;;14.60;94.80;;;;;;5079907;27;20469;-61
2023/01/02 09:18:52;;;;;;;19.43;6.17;;;14.70;94.30;;;;;;5084677;27;20583;-62
2023/01/02 09:21:19;;;;;;;31.27;5.13;;;14.80;94.20;;;;;;5061019;28;20483;-62
2023/01/02 09:23:45;;;;;;;27.30;6.93;;;14.80;94.70;;;;;;5051689;28;20490;-62
2023/01/02 09:26:14;;;;;;;20.00;6.73;;;14.80;94.90;;;;;;5069548;28;20512;-62
2023/01/02 09:28:41;;;;;;;27.97;6.33;;;14.70;95.30;;;;;;5067954;27;20988;-62
2023/01/02 09:31:09;;;;;;;22.20;7.13;;;14.60;95.80;;;;;;5080022;27;20535;-62
2023/01/02 09:33:35;;;;;;;25.53;6.27;;;13.90;96.20;;;;;;5080410;27;20478;-62
2023/01/02 09:36:02;;;;;;;35.07;10.07;;;;;;;;;;5072161;28;20491;-62
2023/01/02 09:38:29;;;;;;;14.20;4.77;;;14.20;97.50;;;;;;5074779;27;20469;-62
2023/01/02 09:40:57;;;;;;;34.37;9.33;;;;;;;;;;5050802;28;20487;-62
2023/01/02 09:43:32;;;;;;;31.83;7.37;;;13.90;98.70;;;;;;5076850;27;20462;-61
2023/01/02 09:46:01;;;;;;;46.00;14.03;;;13.70;99.30;;;;;;5074166;27;20475;-61
2023/01/02 09:48:31;;;;;;;24.90;6.50;;;;;;;;;;5065455;27;20490;-62
2023/01/02 09:50:57;;;;;;;40.00;11.43;;;13.60;99.90;;;;;;5057071;27;20520;-61
2023/01/02 09:53:26;;;;;;;20.73;6.10;;;13.50;99.90;;;;;;5085993;27;20477;-61
2023/01/02 09:55:56;;;;;;;47.50;8.63;;;13.40;99.90;;;;;;5062724;27;20480;-61
2023/01/02 09:58:28;;;;;;;27.03;7.83;;;;;;;;;;5037394;28;20555;-61
2023/01/02 10:00:57;;;;;;;23.70;6.90;;;13.30;99.90;;;;;;5077886;27;20478;-62
2023/01/02 10:03:35;;;;;;;22.50;6.83;;;13.20;99.90;;;;;;5045303;27;20657;-60
2023/01/02 10:06:06;;;;;;;47.33;15.60;;;;;;;;;;5077561;27;20920;-61
2023/01/02 10:08:41;;;;;;;30.23;8.00;;;13.10;99.90;;;;;;5045760;27;20475;-61
2023/01/02 10:11:25;;;;;;;43.47;13.47;;;13.10;99.90;;;;;;5074447;27;20494;-61
2023/01/02 10:13:54;;;;;;;37.50;9.77;;;;;;;;;;5058505;27;21000;-62
2023/01/02 10:16:26;;;;;;;38.70;8.80;;;;;;;;;;5079303;27;20470;-61
2023/01/02 10:18:54;;;;;;;20.93;5.13;;;;;;;;;;5065283;27;20484;-62
2023/01/02 10:21:25;;;;;;;25.87;7.57;;;12.90;99.90;;;;;;5072595;27;20483;-62
2023/01/02 10:23:57;;;;;;;29.00;7.07;;;12.90;99.90;;;;;;5072340;27;20499;-62
2023/01/02 10:26:29;;;;;;;32.20;5.73;;;12.90;99.90;;;;;;5058703;27;20478;-62
2023/01/02 10:29:02;;;;;;;26.10;7.60;;;12.80;99.90;;;;;;5080973;27;20509;-61
2023/01/02 10:31:33;;;;;;;26.30;8.00;;;;;;;;;;5061200;27;20825;-62
2023/01/02 10:34:01;;;;;;;37.07;8.00;;;;;;;;;;5079341;27;21008;-60
2023/01/02 10:36:29;;;;;;;31.33;9.27;;;;;;;;;;5041292;28;20593;-61
2023/01/02 10:39:00;;;;;;;39.73;9.03;;;12.90;99.90;;;;;;5024710;28;20515;-61
2023/01/02 10:41:28;;;;;;;33.67;8.27;;;12.90;99.90;;;;;;5032110;28;20880;-61
2023/01/02 10:44:00;;;;;;;69.27;13.70;;;12.80;99.90;;;;;;5029401;28;20484;-61
2023/01/02 10:46:33;;;;;;;33.23;7.00;;;12.90;99.90;;;;;;5039708;28;20488;-61
2023/01/02 10:49:01;;;;;;;44.50;12.93;;;12.90;99.90;;;;;;5035567;28;20483;-61
2023/01/02 10:51:28;;;;;;;16.43;6.47;;;;;;;;;;5024535;28;20494;-61
2023/01/02 10:54:03;;;;;;;31.33;9.27;;;12.80;99.90;;;;;;5036511;28;20484;-62
2023/01/02 10:56:32;;;;;;;28.27;8.60;;;;;;;;;;5023629;28;20482;-62
2023/01/02 10:59:00;;;;;;;49.03;13.63;;;;;;;;;;5023975;28;21186;-62
2023/01/02 11:01:27;;;;;;;27.33;8.37;;;12.60;99.90;;;;;;5035510;28;20560;-61
2023/01/02 11:06:55;;;;;;;29.13;7.93;;;12.60;99.90;;;;;;5046629;27;20550;-60
2023/01/02 11:09:24;;;;;;;27.37;6.20;;;12.50;99.90;;;;;;5082127;27;20492;-61
2023/01/02 11:11:52;;;;;;;24.20;7.10;;;12.50;99.90;;;;;;5076249;27;20481;-61
2023/01/02 11:14:23;;;;;;;42.80;10.20;;;12.50;99.90;;;;;;5093118;27;20484;-62
2023/01/02 11:16:50;;;;;;;36.83;7.97;;;;;;;;;;5085175;27;21538;-61
2023/01/02 11:19:20;;;;;;;28.10;5.87;;;12.40;99.90;;;;;;5079477;27;20742;-61
2023/01/02 11:21:47;;;;;;;29.07;7.73;;;12.40;99.90;;;;;;5091388;27;20704;-61
2023/01/02 11:24:21;;;;;;;30.03;8.60;;;12.30;99.90;;;;;;5101363;27;20889;-61
2023/01/02 11:26:49;;;;;;;20.33;6.57;;;;;;;;;;5085939;27;20484;-61
2023/01/02 11:29:22;;;;;;;30.97;6.63;;;12.40;99.90;;;;;;5094931;27;20894;-61
2023/01/02 11:31:50;;;;;;;37.30;9.77;;;;;;;;;;5081605;27;20496;-62
2023/01/02 11:34:22;;;;;;;30.70;6.40;;;12.40;99.90;;;;;;5091957;27;20521;-61
2023/01/02 11:37:01;;;;;;;24.17;6.97;;;;;;;;;;5076430;28;20477;-62
2023/01/02 11:39:32;;;;;;;21.07;5.40;;;12.40;99.90;;;;;;5101134;27;20584;-61
2023/01/02 11:44:54;;;;;;;26.30;7.30;;;12.40;99.90;;;;;;5082841;27;21118;-61
2023/01/02 11:47:25;;;;;;;27.70;6.33;;;;;;;;;;5075021;28;20905;-61
2023/01/02 11:49:52;;;;;;;27.13;8.37;;;12.50;99.90;;;;;;5083330;28;20506;-61
2023/01/02 11:52:23;;;;;;;29.17;8.50;;;12.50;99.90;;;;;;5072343;28;20910;-61
2023/01/02 11:54:56;;;;;;;28.10;6.20;;;12.50;99.90;;;;;;5075196;28;20988;-61
2023/01/02 11:57:29;;;;;;;18.70;4.70;;;;;;;;;;5080912;28;21014;-61
2023/01/02 11:59:58;;;;;;;35.10;9.77;;;;;;;;;;5086621;28;20489;-62
2023/01/02 12:02:30;;;;;;;22.43;5.80;;;;;;;;;;5076070;28;20529;-62
2023/01/02 12:04:57;;;;;;;30.37;8.70;;;;;;;;;;5067260;28;20807;-61
2023/01/02 12:07:40;;;;;;;32.57;8.70;;;12.40;99.90;;;;;;5065223;28;20830;-61
2023/01/02 12:10:18;;;;;;;38.33;11.53;;;12.30;99.90;;;;;;5069325;27;21001;-62
2023/01/02 12:12:58;;;;;;;29.73;7.60;;;12.40;99.90;;;;;;5079550;28;20481;-61
2023/01/02 12:16:01;;;;;;;17.83;6.27;;;12.50;99.90;;;;;;5064134;28;20879;-61
2023/01/02 12:18:40;;;;;;;24.47;8.00;;;12.40;99.90;;;;;;5043060;28;20887;-61
2023/01/02 12:21:15;;;;;;;35.80;12.00;;;12.50;99.90;;;;;;5047991;28;20506;-62
2023/01/02 12:24:02;;;;;;;27.00;8.73;;;12.50;99.90;;;;;;5057569;28;20491;-61
2023/01/02 12:26:36;;;;;;;28.93;8.87;;;12.60;99.90;;;;;;5055726;28;20720;-61
2023/01/02 12:29:16;;;;;;;41.30;13.30;;;;;;;;;;5071752;28;20488;-61
2023/01/02 12:32:03;;;;;;;27.33;8.40;;;12.70;99.90;;;;;;5063322;28;20538;-61
2023/01/02 12:34:43;;;;;;;23.77;7.93;;;12.70;99.90;;;;;;5043813;28;20477;-61
2023/01/02 12:37:27;;;;;;;39.80;10.40;;;12.60;99.90;;;;;;5074621;28;20471;-61
2023/01/02 12:40:31;;;;;;;35.20;8.97;;;12.60;99.90;;;;;;5049795;28;20495;-62
2023/01/02 12:43:12;;;;;;;38.57;12.03;;;12.60;99.90;;;;;;5007922;28;20477;-61
2023/01/02 12:45:47;;;;;;;38.97;10.20;;;12.70;99.90;;;;;;5069498;28;20920;-61
2023/01/02 12:48:27;;;;;;;26.73;7.37;;;12.70;99.90;;;;;;5051426;28;20485;-61
2023/01/02 12:51:05;;;;;;;24.27;6.67;;;12.70;99.90;;;;;;5056503;28;20482;-62
2023/01/02 12:53:48;;;;;;;22.20;6.53;;;12.70;99.90;;;;;;5071969;28;20998;-61
2023/01/02 12:56:20;;;;;;;27.43;8.80;;;12.70;99.90;;;;;;5044735;28;21004;-61
2023/01/02 12:58:54;;;;;;;26.77;9.17;;;;;;;;;;5047305;28;20475;-61
2023/01/02 13:01:28;;;;;;;30.43;7.97;;;12.70;99.90;;;;;;5036889;28;20487;-62
2023/01/02 13:03:59;;;;;;;40.37;10.20;;;;;;;;;;5050294;28;20531;-62
2023/01/02 13:06:32;;;;;;;18.00;6.07;;;12.50;99.90;;;;;;5040693;28;20479;-61
2023/01/02 13:09:03;;;;;;;42.17;12.50;;;12.50;99.90;;;;;;5073724;28;20477;-61
2023/01/02 13:11:31;;;;;;;16.97;5.60;;;;;;;;;;5049148;28;20522;-61
2023/01/02 13:14:02;;;;;;;46.30;11.67;;;12.60;99.90;;;;;;5059555;28;20487;-62